Time;durP1;ratioP1;P1;durP2;ratioP2;P2;SDS_P1;SDS_P2;PMS_P1;PMS_P2;Temp;Humidity;BMP_temperature;BMP_pressure;BME280_temperature;BME280_humidity;BME280_pressure;Samples;Min_cycle;Max_cycle;Signal;HPM_P1;HPM_P2
2021/08/07 00:01:19;;;;;;;5.85;3.00;;;;;;;;;;5051238;28;20442;-69
2021/08/07 00:03:44;;;;;;;5.80;2.70;;;;;;;;;;5050775;28;20639;-68
2021/08/07 00:06:10;;;;;;;4.93;2.17;;;;;;;;;;5035506;28;20286;-68
2021/08/07 00:08:35;;;;;;;6.78;2.50;;;;;;;;;;5031708;28;20185;-68
2021/08/07 00:11:00;;;;;;;4.53;2.83;;;;;;;;;;5046546;28;20461;-68
2021/08/07 00:13:25;;;;;;;6.30;2.20;;;;;;;;;;5051548;28;20566;-68
2021/08/07 00:15:50;;;;;;;5.35;2.40;;;;;;;;;;5051263;28;20607;-69
2021/08/07 00:18:15;;;;;;;7.88;2.83;;;;;;;;;;5051690;28;20185;-69
2021/08/07 00:20:41;;;;;;;4.63;2.13;;;;;;;;;;5050444;28;20203;-69
2021/08/07 00:23:06;;;;;;;4.30;2.30;;;;;;;;;;5052917;28;20200;-69
2021/08/07 00:25:31;;;;;;;5.32;2.25;;;;;;;;;;5052103;28;20185;-69
2021/08/07 00:27:56;;;;;;;4.97;2.60;;;;;;;;;;5051486;28;20201;-68
2021/08/07 00:30:21;;;;;;;3.40;2.35;;;;;;;;;;5051840;28;20224;-69
2021/08/07 00:32:47;;;;;;;6.38;2.65;;;;;;;;;;5036170;28;20209;-68
2021/08/07 00:35:12;;;;;;;6.03;2.22;;;;;;;;;;5050062;28;20248;-68
2021/08/07 00:37:37;;;;;;;7.60;3.25;;;;;;;;;;5031233;28;20185;-68
2021/08/07 00:40:05;;;;;;;4.22;2.35;;;;;;;;;;5048674;28;20316;-69
2021/08/07 00:42:30;;;;;;;7.32;2.80;;;;;;;;;;5046266;28;20202;-69
2021/08/07 00:44:55;;;;;;;6.05;2.72;;;;;;;;;;5051674;28;20178;-69
2021/08/07 00:47:20;;;;;;;8.93;2.77;;;;;;;;;;5051410;28;20584;-68
2021/08/07 00:49:45;;;;;;;6.65;3.25;;;;;;;;;;5051697;28;20418;-67
2021/08/07 00:52:11;;;;;;;7.05;2.83;;;;;;;;;;5050396;28;20232;-68
2021/08/07 00:54:38;;;;;;;7.10;2.78;;;;;;;;;;5051633;28;20558;-68
2021/08/07 00:57:03;;;;;;;9.82;3.17;;;;;;;;;;5034513;28;20209;-68
2021/08/07 00:59:28;;;;;;;9.95;3.90;;;;;;;;;;5049341;28;20192;-67
2021/08/07 01:01:55;;;;;;;14.17;3.60;;;;;;;;;;5049077;28;20197;-68
2021/08/07 01:04:22;;;;;;;10.30;3.10;;;;;;;;;;5051147;28;20415;-68
2021/08/07 01:07:06;;;;;;;11.95;4.93;;;;;;;;;;5050108;28;20185;-67
2021/08/07 01:09:46;;;;;;;10.50;4.63;;;;;;;;;;5051736;28;20182;-68
2021/08/07 01:12:26;;;;;;;7.68;2.97;;;;;;;;;;5052522;28;20212;-68
2021/08/07 01:14:54;;;;;;;7.97;3.42;;;;;;;;;;5031486;28;20530;-68
2021/08/07 01:17:22;;;;;;;8.00;3.40;;;;;;;;;;5048626;28;20180;-68
2021/08/07 01:20:07;;;;;;;6.90;3.13;;;;;;;;;;5051704;28;20182;-68
2021/08/07 01:22:45;;;;;;;10.35;3.58;;;;;;;;;;5046382;28;20274;-68
2021/08/07 01:25:14;;;;;;;6.50;3.13;;;;;;;;;;5049337;28;20181;-69
2021/08/07 01:27:39;;;;;;;6.38;3.40;;;;;;;;;;5052095;28;20196;-68
2021/08/07 01:30:06;;;;;;;8.25;3.42;;;;;;;;;;5050754;28;20181;-67
2021/08/07 01:32:33;;;;;;;6.47;3.42;;;;;;;;;;5049738;28;20679;-68
2021/08/07 01:34:58;;;;;;;5.15;2.90;;;;;;;;;;5050548;28;20575;-68
2021/08/07 01:37:24;;;;;;;10.85;4.57;;;;;;;;;;5051565;28;20166;-69
2021/08/07 01:39:50;;;;;;;11.35;4.47;;;;;;;;;;5052160;28;20177;-68
2021/08/07 01:42:15;;;;;;;11.55;3.38;;;;;;;;;;5052116;28;20196;-69
2021/08/07 01:44:41;;;;;;;7.82;3.63;;;;;;;;;;5051321;28;20268;-69
2021/08/07 01:47:09;;;;;;;7.72;3.80;;;;;;;;;;5048742;28;20251;-68
2021/08/07 01:49:40;;;;;;;5.03;3.70;;;;;;;;;;5032444;28;20181;-69
2021/08/07 01:52:08;;;;;;;11.20;4.07;;;;;;;;;;5051120;28;20219;-69
2021/08/07 01:54:36;;;;;;;7.60;3.50;;;;;;;;;;5052120;28;20190;-68
2021/08/07 01:57:04;;;;;;;9.70;4.30;;;;;;;;;;5049401;28;21806;-70
2021/08/07 01:59:34;;;;;;;6.00;3.95;;;;;;;;;;5062588;28;20180;-70
2021/08/07 02:01:59;;;;;;;10.80;3.70;;;;;;;;;;5050974;28;20216;-69
2021/08/07 02:04:24;;;;;;;7.15;4.03;;;;;;;;;;5052565;28;20174;-69
2021/08/07 02:06:50;;;;;;;12.45;5.35;;;;;;;;;;5049165;28;20280;-68
2021/08/07 02:09:18;;;;;;;13.40;4.47;;;;;;;;;;5050449;28;20268;-69
2021/08/07 02:11:44;;;;;;;7.05;4.85;;;;;;;;;;5050825;28;20263;-68
2021/08/07 02:14:09;;;;;;;8.45;4.07;;;;;;;;;;5050748;28;20182;-69
2021/08/07 02:16:37;;;;;;;12.23;5.38;;;;;;;;;;5048639;28;20462;-68
2021/08/07 02:19:02;;;;;;;10.40;5.10;;;;;;;;;;5047564;28;20174;-69
2021/08/07 02:21:28;;;;;;;12.95;5.32;;;;;;;;;;5034005;28;20219;-68
2021/08/07 02:23:53;;;;;;;11.10;5.53;;;;;;;;;;5048490;28;21532;-68
2021/08/07 02:26:20;;;;;;;10.52;4.82;;;;;;;;;;5050924;28;20639;-68
2021/08/07 02:28:46;;;;;;;10.90;4.35;;;;;;;;;;5045983;28;20173;-69
2021/08/07 02:31:12;;;;;;;9.50;5.35;;;;;;;;;;5049216;28;20205;-69
2021/08/07 02:33:38;;;;;;;10.55;5.22;;;;;;;;;;5051290;28;20173;-69
2021/08/07 02:36:04;;;;;;;12.38;5.57;;;;;;;;;;5048799;28;20788;-69
2021/08/07 02:38:31;;;;;;;13.93;5.25;;;;;;;;;;5047940;28;20182;-69
2021/08/07 02:40:57;;;;;;;11.82;6.25;;;;;;;;;;5048593;28;20174;-69
2021/08/07 02:43:23;;;;;;;12.88;5.13;;;;;;;;;;5050955;28;20181;-69
2021/08/07 02:45:49;;;;;;;11.80;5.13;;;;;;;;;;5049747;28;20181;-68
2021/08/07 02:48:14;;;;;;;11.98;5.85;;;;;;;;;;5050151;28;20564;-68
2021/08/07 02:50:41;;;;;;;11.15;5.28;;;;;;;;;;5047829;28;20932;-69
2021/08/07 02:53:06;;;;;;;10.00;6.22;;;;;;;;;;5047980;28;20212;-69
2021/08/07 02:55:31;;;;;;;11.98;6.22;;;;;;;;;;5050331;28;20209;-68
2021/08/07 02:57:56;;;;;;;13.55;5.78;;;;;;;;;;5049314;28;20199;-69
2021/08/07 03:00:22;;;;;;;11.50;5.20;;;;;;;;;;5031406;28;20177;-68
2021/08/07 03:02:47;;;;;;;15.23;5.97;;;;;;;;;;5032958;28;20698;-69
2021/08/07 03:05:12;;;;;;;11.50;5.65;;;;;;;;;;5045485;28;20193;-69
2021/08/07 03:07:38;;;;;;;9.32;5.88;;;;;;;;;;5049329;28;20184;-69
2021/08/07 03:10:08;;;;;;;10.45;5.97;;;;;;;;;;5049613;28;20651;-68
2021/08/07 03:12:34;;;;;;;17.08;7.32;;;;;;;;;;5045535;28;20287;-68
2021/08/07 03:14:59;;;;;;;9.93;6.22;;;;;;;;;;5048323;28;20185;-69
2021/08/07 03:17:25;;;;;;;11.82;6.32;;;;;;;;;;5027649;28;20272;-69
2021/08/07 03:19:50;;;;;;;14.40;6.45;;;;;;;;;;5028178;28;20186;-68
2021/08/07 03:22:17;;;;;;;9.57;6.65;;;;;;;;;;5050199;28;20194;-69
2021/08/07 03:24:42;;;;;;;11.45;6.38;;;;;;;;;;5049094;28;20220;-68
2021/08/07 03:27:07;;;;;;;15.60;7.68;;;;;;;;;;5050010;28;20177;-68
2021/08/07 03:29:32;;;;;;;12.00;6.63;;;;;;;;;;5049815;28;20272;-68
2021/08/07 03:31:57;;;;;;;10.38;6.38;;;;;;;;;;5050431;28;20519;-68
2021/08/07 03:34:22;;;;;;;22.70;7.90;;;;;;;;;;5031291;28;20679;-69
2021/08/07 03:36:48;;;;;;;10.13;6.88;;;;;;;;;;5049498;28;20205;-68
2021/08/07 03:39:13;;;;;;;15.38;6.85;;;;;;;;;;5048445;28;20177;-68
2021/08/07 03:41:38;;;;;;;7.88;5.85;;;;;;;;;;5049824;28;20214;-68
2021/08/07 03:44:03;;;;;;;8.60;5.83;;;;;;;;;;5049643;28;20186;-69
2021/08/07 03:46:29;;;;;;;10.10;5.35;;;;;;;;;;5049647;28;20442;-69
2021/08/07 03:48:54;;;;;;;11.63;6.57;;;;;;;;;;5049555;28;20261;-68
2021/08/07 03:51:19;;;;;;;12.27;5.53;;;;;;;;;;5049474;28;20294;-69
2021/08/07 03:53:44;;;;;;;13.13;6.70;;;;;;;;;;5047163;28;20288;-69
2021/08/07 03:56:09;;;;;;;9.23;5.55;;;;;;;;;;5049450;28;20202;-69
2021/08/07 03:58:35;;;;;;;10.63;5.35;;;;;;;;;;5049264;28;20717;-69
2021/08/07 04:01:00;;;;;;;15.60;6.30;;;;;;;;;;5049486;28;20601;-67
2021/08/07 04:03:25;;;;;;;11.85;5.40;;;;;;;;;;5050225;28;20197;-68
2021/08/07 04:05:50;;;;;;;10.18;5.82;;;;;;;;;;5048367;28;20611;-68
2021/08/07 04:08:15;;;;;;;12.25;5.38;;;;;;;;;;5048232;28;20249;-68
2021/08/07 04:10:41;;;;;;;10.27;5.13;;;;;;;;;;5048946;28;20177;-68
2021/08/07 04:13:06;;;;;;;10.63;4.57;;;;;;;;;;5049499;28;20633;-68
2021/08/07 04:15:31;;;;;;;11.88;4.82;;;;;;;;;;5048957;28;20585;-68
2021/08/07 04:17:56;;;;;;;8.43;5.60;;;;;;;;;;5047529;28;20532;-69
2021/08/07 04:20:22;;;;;;;10.75;4.90;;;;;;;;;;5030541;28;20559;-68
2021/08/07 04:22:47;;;;;;;9.55;5.32;;;;;;;;;;5052519;28;20577;-68
2021/08/07 04:25:13;;;;;;;6.88;4.70;;;;;;;;;;5033827;28;20247;-68
2021/08/07 04:27:38;;;;;;;7.75;5.40;;;;;;;;;;5052637;28;20231;-69
2021/08/07 04:30:04;;;;;;;9.48;5.13;;;;;;;;;;5052324;28;20196;-68
2021/08/07 04:32:29;;;;;;;10.10;5.30;;;;;;;;;;5053144;28;20197;-68
2021/08/07 04:34:55;;;;;;;12.60;6.05;;;;;;;;;;5051353;28;20193;-67
2021/08/07 04:37:20;;;;;;;8.95;4.88;;;;;;;;;;5051739;28;20308;-68
2021/08/07 04:39:45;;;;;;;8.57;5.03;;;;;;;;;;5054269;28;20184;-69
2021/08/07 04:42:10;;;;;;;9.45;5.53;;;;;;;;;;5034976;28;20205;-67
2021/08/07 04:44:36;;;;;;;8.45;4.72;;;;;;;;;;5052324;28;20548;-68
2021/08/07 04:47:01;;;;;;;10.43;5.13;;;;;;;;;;5035054;28;20186;-68
2021/08/07 04:49:26;;;;;;;9.20;5.05;;;;;;;;;;5051892;28;20189;-68
2021/08/07 04:51:51;;;;;;;8.25;4.07;;;;;;;;;;5051196;28;20288;-68
2021/08/07 04:54:16;;;;;;;9.20;5.00;;;;;;;;;;5051366;28;20811;-68
2021/08/07 04:56:43;;;;;;;7.38;5.28;;;;;;;;;;5053619;28;20244;-68
2021/08/07 04:59:08;;;;;;;5.97;5.00;;;;;;;;;;5051694;28;20182;-68
2021/08/07 05:01:33;;;;;;;9.93;5.40;;;;;;;;;;5050451;28;20232;-67
2021/08/07 05:03:58;;;;;;;7.13;4.57;;;;;;;;;;5051343;28;20188;-68
2021/08/07 05:06:23;;;;;;;13.43;5.20;;;;;;;;;;5049422;28;20441;-68
2021/08/07 05:08:48;;;;;;;8.48;4.95;;;;;;;;;;5051055;28;20193;-68
2021/08/07 05:11:14;;;;;;;9.63;5.35;;;;;;;;;;5050960;28;20287;-68
2021/08/07 05:13:39;;;;;;;5.68;4.55;;;;;;;;;;5050936;28;20193;-68
2021/08/07 05:16:04;;;;;;;8.10;4.20;;;;;;;;;;5032579;28;20209;-69
2021/08/07 05:18:30;;;;;;;17.67;6.85;;;;;;;;;;5048187;28;20701;-68
2021/08/07 05:20:55;;;;;;;10.95;4.88;;;;;;;;;;5034025;28;20220;-68
2021/08/07 05:23:20;;;;;;;8.20;3.53;;;;;;;;;;5053020;28;20677;-69
2021/08/07 05:25:46;;;;;;;5.75;4.00;;;;;;;;;;5051500;28;20200;-69
2021/08/07 05:28:12;;;;;;;7.63;3.83;;;;;;;;;;5051610;28;20184;-68
2021/08/07 05:30:37;;;;;;;11.95;4.20;;;;;;;;;;5047748;28;20186;-68
2021/08/07 05:33:02;;;;;;;8.85;3.92;;;;;;;;;;5052247;28;20683;-68
2021/08/07 05:35:27;;;;;;;7.03;3.70;;;;;;;;;;5051794;28;20264;-68
2021/08/07 05:37:52;;;;;;;7.13;3.30;;;;;;;;;;5057444;28;20181;-67
2021/08/07 05:40:18;;;;;;;6.22;3.20;;;;;;;;;;5054053;28;20492;-68
2021/08/07 05:42:43;;;;;;;11.10;3.92;;;;;;;;;;5050879;28;20206;-68
2021/08/07 05:45:09;;;;;;;5.45;2.90;;;;;;;;;;5049775;28;20182;-68
2021/08/07 05:47:34;;;;;;;4.28;2.95;;;;;;;;;;5051476;28;20705;-69
2021/08/07 05:49:59;;;;;;;7.45;3.22;;;;;;;;;;5051640;28;20170;-68
2021/08/07 05:52:26;;;;;;;4.75;2.67;;;;;;;;;;5052137;28;20193;-68
2021/08/07 05:54:51;;;;;;;6.30;2.35;;;;;;;;;;5051133;28;20228;-68
2021/08/07 05:57:17;;;;;;;4.80;2.90;;;;;;;;;;5052237;28;20209;-69
2021/08/07 05:59:42;;;;;;;6.20;2.55;;;;;;;;;;5050832;28;20998;-68
2021/08/07 06:02:07;;;;;;;7.13;3.05;;;;;;;;;;5048289;28;20212;-68
2021/08/07 06:04:33;;;;;;;7.13;2.53;;;;;;;;;;5049811;28;20173;-68
2021/08/07 06:06:58;;;;;;;10.25;3.03;;;;;;;;;;5033995;28;20180;-68
2021/08/07 06:09:24;;;;;;;6.55;2.60;;;;;;;;;;5050821;28;20599;-70
2021/08/07 06:11:49;;;;;;;6.47;2.85;;;;;;;;;;5050337;28;20217;-69
2021/08/07 06:14:14;;;;;;;5.63;2.97;;;;;;;;;;5033957;28;20203;-68
2021/08/07 06:16:40;;;;;;;5.07;1.90;;;;;;;;;;5051572;28;20296;-68
2021/08/07 06:19:05;;;;;;;4.72;1.67;;;;;;;;;;5049276;28;20800;-69
2021/08/07 06:21:31;;;;;;;5.15;2.42;;;;;;;;;;5031895;28;20205;-69
2021/08/07 06:23:58;;;;;;;10.40;3.03;;;;;;;;;;5051844;28;20185;-69
2021/08/07 06:26:23;;;;;;;5.25;1.80;;;;;;;;;;5051584;28;20225;-69
2021/08/07 06:28:48;;;;;;;5.18;1.83;;;;;;;;;;5051451;28;20235;-69
2021/08/07 06:31:13;;;;;;;5.22;2.15;;;;;;;;;;5051453;28;20197;-69
2021/08/07 06:33:39;;;;;;;5.07;1.90;;;;;;;;;;5050422;28;20200;-69
2021/08/07 06:36:04;;;;;;;3.72;1.50;;;;;;;;;;5050520;28;20832;-69
2021/08/07 06:38:29;;;;;;;6.70;2.05;;;;;;;;;;5047915;28;20185;-68
2021/08/07 06:40:54;;;;;;;4.22;1.50;;;;;;;;;;5044181;28;20173;-69
2021/08/07 06:43:20;;;;;;;5.53;1.80;;;;;;;;;;5049573;28;20704;-69
2021/08/07 06:45:45;;;;;;;3.75;1.55;;;;;;;;;;5032907;28;20196;-69
2021/08/07 06:48:11;;;;;;;4.85;2.05;;;;;;;;;;5050183;28;20227;-69
2021/08/07 06:50:36;;;;;;;5.53;1.77;;;;;;;;;;5048431;28;20231;-69
2021/08/07 06:53:01;;;;;;;5.15;1.70;;;;;;;;;;5049416;28;20202;-69
2021/08/07 06:55:26;;;;;;;6.55;1.33;;;;;;;;;;5051081;28;20284;-70
2021/08/07 06:57:51;;;;;;;3.93;1.40;;;;;;;;;;5050293;28;20174;-69
2021/08/07 07:00:17;;;;;;;3.83;1.10;;;;;;;;;;5048737;28;20447;-69
2021/08/07 07:02:42;;;;;;;3.92;1.33;;;;;;;;;;5044962;28;20577;-69
2021/08/07 07:05:07;;;;;;;3.23;1.33;;;;;;;;;;5048873;28;20174;-68
2021/08/07 07:07:32;;;;;;;2.55;1.45;;;;;;;;;;5050790;28;20768;-69
2021/08/07 07:09:57;;;;;;;2.77;1.30;;;;;;;;;;5049629;28;20170;-69
2021/08/07 07:12:23;;;;;;;4.20;1.50;;;;;;;;;;5050852;28;21035;-69
2021/08/07 07:14:48;;;;;;;2.30;1.00;;;;;;;;;;5049465;28;20431;-70
2021/08/07 07:17:13;;;;;;;6.40;1.57;;;;;;;;;;5049696;28;20463;-71
2021/08/07 07:19:38;;;;;;;3.17;1.92;;;;;;;;;;5049667;28;20419;-71
2021/08/07 07:22:04;;;;;;;5.53;1.50;;;;;;;;;;5048327;28;20545;-69
2021/08/07 07:24:30;;;;;;;4.30;1.30;;;;;;;;;;5051156;28;20170;-69
2021/08/07 07:26:55;;;;;;;3.57;1.17;;;;;;;;;;5049314;28;20203;-68
2021/08/07 07:29:20;;;;;;;3.63;1.40;;;;;;;;;;5049256;28;20485;-69
2021/08/07 07:31:45;;;;;;;3.75;1.33;;;;;;;;;;5050752;28;20206;-71
2021/08/07 07:34:10;;;;;;;3.35;1.17;;;;;;;;;;5050029;28;20235;-68
2021/08/07 07:36:36;;;;;;;5.40;1.90;;;;;;;;;;5031426;28;20202;-70
2021/08/07 07:39:01;;;;;;;2.40;1.20;;;;;;;;;;5031726;28;20901;-70
2021/08/07 07:41:26;;;;;;;2.55;1.23;;;;;;;;;;5050507;28;20430;-71
2021/08/07 07:43:52;;;;;;;4.13;1.53;;;;;;;;;;5050040;28;20184;-71
2021/08/07 07:46:17;;;;;;;4.45;1.42;;;;;;;;;;5050326;28;20951;-71
2021/08/07 07:48:42;;;;;;;5.15;2.10;;;;;;;;;;5048365;28;20564;-71
2021/08/07 07:51:07;;;;;;;3.05;1.25;;;;;;;;;;5048589;28;20284;-70
2021/08/07 07:53:33;;;;;;;3.80;1.20;;;;;;;;;;5049236;28;20178;-70
2021/08/07 07:55:58;;;;;;;3.40;1.50;;;;;;;;;;5050992;28;20220;-70
2021/08/07 07:58:23;;;;;;;4.93;1.80;;;;;;;;;;5057725;28;20188;-70
2021/08/07 08:00:48;;;;;;;4.10;1.58;;;;;;;;;;5053646;28;20181;-68
2021/08/07 08:03:13;;;;;;;5.10;1.80;;;;;;;;;;5052157;28;20258;-68
2021/08/07 08:05:39;;;;;;;4.22;1.65;;;;;;;;;;5051825;28;20452;-70
2021/08/07 08:08:04;;;;;;;3.83;1.60;;;;;;;;;;5052414;28;20225;-70
2021/08/07 08:10:29;;;;;;;3.67;1.45;;;;;;;;;;5044394;28;20177;-70
2021/08/07 08:12:54;;;;;;;2.90;1.83;;;;;;;;;;5068343;22;20721;-68
2021/08/07 08:15:20;;;;;;;3.88;2.20;;;;;;;;;;5056686;28;20197;-68
2021/08/07 08:17:45;;;;;;;5.25;1.80;;;;;;;;;;5050523;28;20609;-68
2021/08/07 08:20:11;;;;;;;3.15;1.77;;;;;;;;;;5054826;28;20608;-68
2021/08/07 08:22:36;;;;;;;6.53;1.70;;;;;;;;;;5053367;28;20209;-69
2021/08/07 08:25:02;;;;;;;7.25;2.50;;;;;;;;;;5053782;28;21563;-68
2021/08/07 08:27:27;;;;;;;4.43;1.50;;;;;;;;;;5053147;28;20181;-71
2021/08/07 08:29:53;;;;;;;3.87;1.57;;;;;;;;;;5053499;28;20192;-72
2021/08/07 08:32:18;;;;;;;6.25;1.85;;;;;;;;;;5051819;28;20477;-69
2021/08/07 08:34:43;;;;;;;3.63;1.50;;;;;;;;;;5050280;28;20686;-68
2021/08/07 08:37:08;;;;;;;3.03;1.50;;;;;;;;;;5052564;28;20549;-69
2021/08/07 08:39:34;;;;;;;4.75;1.45;;;;;;;;;;5053471;28;20256;-69
2021/08/07 08:41:59;;;;;;;6.28;1.80;;;;;;;;;;5053431;28;20545;-69
2021/08/07 08:44:25;;;;;;;5.05;2.05;;;;;;;;;;5053850;28;20200;-70
2021/08/07 08:46:50;;;;;;;3.28;1.33;;;;;;;;;;5053185;28;20561;-70
2021/08/07 08:49:16;;;;;;;4.22;1.60;;;;;;;;;;5053063;28;20264;-70
2021/08/07 08:51:42;;;;;;;6.38;1.38;;;;;;;;;;5053505;28;20223;-70
2021/08/07 08:54:08;;;;;;;5.28;1.48;;;;;;;;;;5053416;28;20658;-70
2021/08/07 08:56:34;;;;;;;3.47;1.60;;;;;;;;;;5053315;28;20213;-70
2021/08/07 08:59:01;;;;;;;6.93;1.58;;;;;;;;;;5053220;28;20407;-69
2021/08/07 09:01:27;;;;;;;3.05;1.33;;;;;;;;;;5051486;28;20198;-70
2021/08/07 09:03:52;;;;;;;4.90;1.23;;;;;;;;;;5053274;28;20279;-69
2021/08/07 09:06:17;;;;;;;4.87;1.23;;;;;;;;;;5052423;28;20178;-69
2021/08/07 09:08:56;;;;;;;1.83;1.13;;;;;;;;;;5052852;28;20446;-69
2021/08/07 09:11:22;;;;;;;3.25;1.30;;;;;;;;;;5053046;28;20517;-71
2021/08/07 09:13:47;;;;;;;2.67;0.88;;;;;;;;;;5035766;28;20608;-70
2021/08/07 09:16:14;;;;;;;2.97;0.82;;;;;;;;;;5052801;28;20201;-70
2021/08/07 09:18:39;;;;;;;5.82;1.30;;;;;;;;;;5052907;28;20602;-69
2021/08/07 09:21:15;;;;;;;3.10;1.00;;;;;;;;;;5052858;28;20186;-69
2021/08/07 09:23:41;;;;;;;3.03;1.00;;;;;;;;;;5053192;28;20422;-69
2021/08/07 09:26:18;;;;;;;2.35;0.80;;;;;;;;;;5052914;28;20180;-70
2021/08/07 09:28:49;;;;;;;3.40;1.10;;;;;;;;;;5052682;28;20177;-69
2021/08/07 09:31:15;;;;;;;4.30;1.27;;;;;;;;;;5052709;28;20174;-70
2021/08/07 09:33:40;;;;;;;4.60;1.50;;;;;;;;;;5052757;28;20180;-71
2021/08/07 09:36:05;;;;;;;4.20;1.10;;;;;;;;;;5054185;28;20290;-70
2021/08/07 09:38:31;;;;;;;2.90;1.13;;;;;;;;;;5052378;28;20411;-71
2021/08/07 09:41:00;;;;;;;2.60;1.27;;;;;;;;;;5052580;28;20200;-71
2021/08/07 09:43:25;;;;;;;2.05;1.35;;;;;;;;;;5045638;28;20173;-69
2021/08/07 09:45:56;;;;;;;5.93;1.30;;;;;;;;;;5052257;28;20226;-70
2021/08/07 09:48:28;;;;;;;3.20;1.40;;;;;;;;;;5051894;28;20448;-69
2021/08/07 09:50:53;;;;;;;2.85;1.27;;;;;;;;;;5052605;28;20173;-69
2021/08/07 09:53:20;;;;;;;4.28;1.38;;;;;;;;;;5052335;28;20216;-70
2021/08/07 09:55:58;;;;;;;5.97;1.60;;;;;;;;;;5052180;28;20201;-69
2021/08/07 09:58:24;;;;;;;2.75;1.10;;;;;;;;;;5047862;28;20519;-70
2021/08/07 10:00:49;;;;;;;4.20;1.35;;;;;;;;;;5052759;28;20192;-69
2021/08/07 10:03:19;;;;;;;3.63;2.03;;;;;;;;;;5048708;28;20201;-69
2021/08/07 10:05:45;;;;;;;4.03;1.40;;;;;;;;;;5052773;28;20251;-69
2021/08/07 10:08:11;;;;;;;1.67;1.10;;;;;;;;;;5052266;28;20642;-71
2021/08/07 10:10:37;;;;;;;4.45;1.50;;;;;;;;;;5052192;28;20216;-69
2021/08/07 10:13:02;;;;;;;3.40;1.55;;;;;;;;;;5052578;28;20295;-69
2021/08/07 10:15:27;;;;;;;3.65;1.67;;;;;;;;;;5054745;28;20251;-69
2021/08/07 10:17:54;;;;;;;3.28;1.70;;;;;;;;;;5055496;28;20228;-69
2021/08/07 10:20:20;;;;;;;4.40;1.65;;;;;;;;;;5039020;28;20178;-69
2021/08/07 10:22:45;;;;;;;4.53;2.00;;;;;;;;;;5055848;28;20189;-69
2021/08/07 10:25:10;;;;;;;4.65;1.55;;;;;;;;;;5057091;28;20223;-69
2021/08/07 10:27:36;;;;;;;7.28;2.00;;;;;;;;;;5060085;28;20279;-69
2021/08/07 10:30:03;;;;;;;2.80;1.48;;;;;;;;;;5058815;28;20537;-69
2021/08/07 10:32:29;;;;;;;3.47;1.60;;;;;;;;;;5052048;28;20189;-69
2021/08/07 10:34:54;;;;;;;3.55;1.55;;;;;;;;;;5052796;28;20177;-70
2021/08/07 10:37:20;;;;;;;4.90;1.38;;;;;;;;;;5033774;28;20227;-69
2021/08/07 10:39:45;;;;;;;3.67;1.60;;;;;;;;;;5050886;28;20265;-70
2021/08/07 10:42:11;;;;;;;5.50;1.60;;;;;;;;;;5051669;28;20197;-69
2021/08/07 10:44:36;;;;;;;3.78;1.48;;;;;;;;;;5051388;28;20173;-70
2021/08/07 10:47:02;;;;;;;5.78;1.45;;;;;;;;;;5051178;28;20564;-69
2021/08/07 10:49:33;;;;;;;3.90;1.52;;;;;;;;;;5051019;28;20177;-69
2021/08/07 10:51:59;;;;;;;5.32;1.25;;;;;;;;;;5051334;28;20197;-70
2021/08/07 10:54:27;;;;;;;5.13;1.23;;;;;;;;;;5051428;28;20644;-69
2021/08/07 10:56:52;;;;;;;3.42;1.20;;;;;;;;;;5051170;28;20504;-68
2021/08/07 10:59:22;;;;;;;5.15;1.50;;;;;;;;;;5050840;28;20583;-69
2021/08/07 11:01:49;;;;;;;4.60;1.10;;;;;;;;;;5033031;28;20623;-69
2021/08/07 11:04:17;;;;;;;6.13;1.83;;;;;;;;;;5051212;28;20178;-68
2021/08/07 11:06:42;;;;;;;8.73;1.67;;;;;;;;;;5050544;28;20174;-69
2021/08/07 11:09:16;;;;;;;4.93;1.38;;;;;;;;;;5050945;28;20212;-69
2021/08/07 11:11:42;;;;;;;3.45;1.35;;;;;;;;;;5049067;28;20690;-69
2021/08/07 11:14:24;;;;;;;7.63;1.83;;;;;;;;;;5050956;28;20402;-69
2021/08/07 11:17:09;;;;;;;5.63;1.60;;;;;;;;;;5046574;28;20205;-69
2021/08/07 11:19:43;;;;;;;2.88;1.30;;;;;;;;;;5048749;28;20204;-69
2021/08/07 11:22:09;;;;;;;3.72;1.33;;;;;;;;;;5051497;28;20212;-69
2021/08/07 11:24:43;;;;;;;3.78;1.73;;;;;;;;;;5050732;28;20647;-70
2021/08/07 11:27:08;;;;;;;7.07;1.42;;;;;;;;;;5051117;28;20206;-69
2021/08/07 11:29:33;;;;;;;3.53;1.20;;;;;;;;;;5033493;28;20266;-69
2021/08/07 11:32:17;;;;;;;3.75;1.00;;;;;;;;;;5055090;28;20291;-69
2021/08/07 11:34:48;;;;;;;2.97;1.10;;;;;;;;;;5049229;28;20177;-69
2021/08/07 11:37:14;;;;;;;6.00;1.83;;;;;;;;;;5053665;28;20213;-69
2021/08/07 11:39:58;;;;;;;6.30;1.40;;;;;;;;;;5054666;28;20234;-69
2021/08/07 11:42:35;;;;;;;3.03;1.38;;;;;;;;;;5054261;28;20293;-70
2021/08/07 11:45:00;;;;;;;3.65;1.30;;;;;;;;;;5054403;28;20177;-69
2021/08/07 11:47:25;;;;;;;4.03;1.08;;;;;;;;;;5054789;28;20177;-69
2021/08/07 11:49:51;;;;;;;2.67;1.20;;;;;;;;;;5054237;28;20185;-70
2021/08/07 11:52:17;;;;;;;2.63;0.80;;;;;;;;;;5054441;28;20932;-72
2021/08/07 11:54:42;;;;;;;3.87;1.00;;;;;;;;;;5054508;28;20188;-70
2021/08/07 11:57:23;;;;;;;3.22;0.82;;;;;;;;;;5054271;28;20457;-70
2021/08/07 11:59:48;;;;;;;4.25;0.90;;;;;;;;;;5054261;28;20208;-69
2021/08/07 12:02:14;;;;;;;3.37;1.10;;;;;;;;;;5052380;28;20193;-70
2021/08/07 12:04:40;;;;;;;6.35;1.08;;;;;;;;;;5054626;28;20823;-69
2021/08/07 12:07:11;;;;;;;2.87;1.20;;;;;;;;;;5054435;28;20181;-69
2021/08/07 12:09:37;;;;;;;3.03;0.77;;;;;;;;;;5053760;28;20787;-69
2021/08/07 12:12:02;;;;;;;2.20;1.02;;;;;;;;;;5054155;28;20292;-70
2021/08/07 12:14:28;;;;;;;3.38;1.08;;;;;;;;;;5054118;28;20560;-69
2021/08/07 12:16:53;;;;;;;3.03;0.85;;;;;;;;;;5054512;28;20209;-70
2021/08/07 12:19:19;;;;;;;2.35;0.70;;;;;;;;;;5053685;28;20224;-71
2021/08/07 12:21:44;;;;;;;3.55;1.10;;;;;;;;;;5054296;28;20193;-70
2021/08/07 12:24:11;;;;;;;1.10;0.68;;;;;;;;;;5054063;28;20483;-71
2021/08/07 12:26:46;;;;;;;2.28;0.88;;;;;;;;;;5047677;28;20186;-70
2021/08/07 12:29:17;;;;;;;3.17;0.80;;;;;;;;;;5053812;28;20182;-71
2021/08/07 12:31:53;;;;;;;2.33;1.15;;;;;;;;;;5054196;28;20206;-70
2021/08/07 12:34:18;;;;;;;1.77;0.60;;;;;;;;;;5053334;28;20257;-69
2021/08/07 12:36:56;;;;;;;2.07;0.70;;;;;;;;;;5055507;28;20289;-70
2021/08/07 12:39:22;;;;;;;3.50;0.80;;;;;;;;;;5053242;28;20439;-70
2021/08/07 12:41:47;;;;;;;2.80;0.90;;;;;;;;;;5052649;28;20217;-70
2021/08/07 12:44:23;;;;;;;3.03;1.10;;;;;;;;;;5053621;28;20170;-69
2021/08/07 12:46:49;;;;;;;3.85;1.10;;;;;;;;;;5048947;28;20615;-69
2021/08/07 12:49:31;;;;;;;2.22;0.88;;;;;;;;;;5052968;28;20174;-70
2021/08/07 12:52:00;;;;;;;4.82;1.02;;;;;;;;;;5050054;28;20762;-70
2021/08/07 12:54:25;;;;;;;3.15;0.98;;;;;;;;;;5049326;28;20204;-70
2021/08/07 12:56:50;;;;;;;2.63;1.53;;;;;;;;;;5053344;28;20686;-70
2021/08/07 12:59:18;;;;;;;4.17;1.10;;;;;;;;;;5053037;28;20170;-70
2021/08/07 13:01:58;;;;;;;3.45;1.02;;;;;;;;;;5048187;28;20190;-70
2021/08/07 13:04:37;;;;;;;3.25;0.90;;;;;;;;;;5049452;28;20666;-70
2021/08/07 13:07:02;;;;;;;2.78;0.85;;;;;;;;;;5051260;28;20216;-69
2021/08/07 13:09:28;;;;;;;2.80;0.90;;;;;;;;;;5052893;28;20213;-69
2021/08/07 13:12:21;;;;;;;3.25;0.70;;;;;;;;;;5052861;28;20797;-71
2021/08/07 13:14:52;;;;;;;4.22;0.88;;;;;;;;;;5042579;28;20181;-69
2021/08/07 13:17:36;;;;;;;2.58;1.08;;;;;;;;;;5053002;28;20622;-69
2021/08/07 13:20:02;;;;;;;3.97;0.85;;;;;;;;;;5052594;28;20235;-70
2021/08/07 13:22:28;;;;;;;1.67;0.65;;;;;;;;;;5052747;28;20205;-69
2021/08/07 13:24:57;;;;;;;2.17;0.90;;;;;;;;;;5053005;28;20315;-68
2021/08/07 13:27:37;;;;;;;2.08;1.00;;;;;;;;;;5048275;28;20215;-69
2021/08/07 13:30:03;;;;;;;3.25;0.73;;;;;;;;;;5053138;28;20177;-70
2021/08/07 13:32:29;;;;;;;2.97;0.88;;;;;;;;;;5052863;28;20201;-68
2021/08/07 13:34:55;;;;;;;4.35;1.48;;;;;;;;;;5065884;28;20231;-68
2021/08/07 13:37:20;;;;;;;2.92;0.88;;;;;;;;;;5068726;28;20252;-68
2021/08/07 13:39:46;;;;;;;2.90;0.73;;;;;;;;;;5067582;28;20190;-68
2021/08/07 13:42:12;;;;;;;2.22;0.70;;;;;;;;;;5068681;28;20228;-69
2021/08/07 13:44:38;;;;;;;3.63;1.00;;;;;;;;;;5069453;28;20220;-69
2021/08/07 13:47:04;;;;;;;3.72;0.60;;;;;;;;;;5067599;28;20237;-68
2021/08/07 13:49:29;;;;;;;2.50;0.80;;;;;;;;;;5068158;28;20185;-72
2021/08/07 13:51:54;;;;;;;2.60;1.30;;;;;;;;;;5060142;28;20201;-69
2021/08/07 13:54:20;;;;;;;1.13;0.60;;;;;;;;;;5036343;28;20174;-72
2021/08/07 13:56:45;;;;;;;2.20;0.87;;;;;;;;;;5035159;28;20204;-70
2021/08/07 13:59:11;;;;;;;2.13;0.60;;;;;;;;;;5053033;28;20644;-73
2021/08/07 14:01:37;;;;;;;1.85;0.80;;;;;;;;;;5048440;28;20273;-70
2021/08/07 14:04:02;;;;;;;8.43;0.87;;;;;;;;;;5053057;28;20261;-69
2021/08/07 14:06:27;;;;;;;1.33;0.80;;;;;;;;;;5052635;28;20414;-69
2021/08/07 14:08:52;;;;;;;1.57;0.80;;;;;;;;;;5052422;28;20443;-69
2021/08/07 14:13:50;;;;;;;1.50;0.52;;;;;;;;;;5050692;28;20469;-68
2021/08/07 14:16:16;;;;;;;2.60;1.30;;;;;;;;;;5051507;28;20207;-68
2021/08/07 14:18:41;;;;;;;2.10;0.80;;;;;;;;;;5051681;28;20219;-68
2021/08/07 14:21:06;;;;;;;3.88;1.30;;;;;;;;;;5051601;28;20181;-68
2021/08/07 14:23:32;;;;;;;2.33;0.70;;;;;;;;;;5033989;28;20198;-68
2021/08/07 14:25:57;;;;;;;1.83;0.80;;;;;;;;;;5051542;28;20174;-68
2021/08/07 14:28:22;;;;;;;2.97;0.70;;;;;;;;;;5051438;28;20690;-68
2021/08/07 14:30:48;;;;;;;3.80;0.77;;;;;;;;;;5051503;28;20177;-69
2021/08/07 14:33:13;;;;;;;2.67;0.60;;;;;;;;;;5051780;28;20197;-70
2021/08/07 14:35:38;;;;;;;1.40;0.60;;;;;;;;;;5032098;28;20458;-69
2021/08/07 14:38:03;;;;;;;1.57;0.80;;;;;;;;;;5043138;28;20763;-69
2021/08/07 14:40:28;;;;;;;3.10;0.60;;;;;;;;;;5049278;28;20893;-68